Pag, Croatia
Current Conditions -  °F | °C
As of 12:30 AM on Tuesday 23 Dec 2014 (Local Time) from LDZD Reporting Station
Light Fog Light Fog  
Wind Chill: 34°   Ceiling: Unl
Heat Index: 37°   Visibility: 5mi
Dew Point: 37°   Wind: 5mph
Humidity: 100%   Direction: 140°SE
Pressure: 30.36"   Gusts: NA
Location:  44.44°N, 15.05°E
Report Text: LDZD 222330Z 14004KT 8000 MIFG FEW040 03/03 Q1028
Loading
Personal Weather Stations






























Interactive Weather Map New forecast layout! Learn more

10-Day Weather Forecast

Advertisements
Track Severe Weather on mobile